This is the latest recevied weather packets stored in our database for station/object SP6PWT-13. If no packets are shown the sender has not sent any weather packets the latest 1 day(s).
| Time | Temp. | Humidity | Pressure | Rain* | Wind** | Luminosity | Snow |
|---|---|---|---|---|---|---|---|
| 1778082535 | 22.78° C | 42% | 988.7 hPa | 0 mm | - | 92 W/m² | - |
| 1778081032 | 23.33° C | 40% | 988.9 hPa | 0 mm | - | 268 W/m² | - |
| 1778080130 | 23.33° C | 40% | 988.9 hPa | 0 mm | - | 288 W/m² | - |
| 1778079830 | 23.33° C | 39% | 989 hPa | 0 mm | - | 304 W/m² | - |
| 1778078328 | 23.33° C | 38% | 989.2 hPa | 0 mm | - | 372 W/m² | - |
| 1778076223 | 22.22° C | 44% | 989.5 hPa | 0 mm | - | 294 W/m² | - |
| 1778075020 | 22.22° C | 44% | 989.5 hPa | 0 mm | - | 521 W/m² | - |
| 1778074118 | 22.22° C | 46% | 989.6 hPa | 0 mm | - | 247 W/m² | - |
| 1778073216 | 22.22° C | 46% | 989.8 hPa | 0 mm | - | 488 W/m² | - |
| 1778072314 | 22.22° C | 47% | 989.6 hPa | 0 mm | - | 635 W/m² | - |
| 1778070480 | 21.67° C | 48% | 989.8 hPa | 0 mm | - | 484 W/m² | - |
| 1778070180 | 21.11° C | 50% | 989.9 hPa | 0 mm | - | 502 W/m² | - |
| 1778068958 | 21.11° C | 51% | 989.8 hPa | 0 mm | - | 409 W/m² | - |
| 1778068657 | 20.56° C | 51% | 990 hPa | 0 mm | - | 598 W/m² | - |
| 1778068356 | 20.56° C | 51% | 989.8 hPa | 0 mm | - | 313 W/m² | - |
| 1778067744 | 20.56° C | 52% | 989.8 hPa | 0 mm | - | 311 W/m² | - |
| 1778067444 | 20.56° C | 52% | 989.8 hPa | 0 mm | - | 304 W/m² | - |
| 1778067143 | 20.56° C | 53% | 989.7 hPa | 0 mm | - | 273 W/m² | - |
| 1778065027 | 20° C | 53% | 989.8 hPa | 0 mm | - | 390 W/m² | - |
| 1778064726 | 20° C | 53% | 989.9 hPa | 0 mm | - | 223 W/m² | - |
| 1778063814 | 20° C | 54% | 989.9 hPa | 0 mm | - | 317 W/m² | - |
| 1778063513 | 20° C | 53% | 989.9 hPa | 0 mm | - | 466 W/m² | - |
| 1778063212 | 20° C | 53% | 989.9 hPa | 0 mm | - | 164 W/m² | - |
| 1778062601 | 20° C | 53% | 989.9 hPa | 0 mm | - | 757 W/m² | - |
| 1778062300 | 20° C | 54% | 990.1 hPa | 0 mm | - | 752 W/m² | - |
* Rain latest hour (hover to see other rain measurements)
** Current wind speed in m/s (hover to see current wind gust speed)